sensor_id;sensor_type;location;lat;lon;timestamp;P1;durP1;ratioP1;P2;durP2;ratioP2
54909;SDS011;63189;51.240;9.964;2023-03-01T00:01:47;11.15;;;6.93;;
54909;SDS011;63189;51.240;9.964;2023-03-01T00:04:12;11.00;;;6.95;;
54909;SDS011;63189;51.240;9.964;2023-03-01T00:06:38;12.88;;;6.90;;
54909;SDS011;63189;51.240;9.964;2023-03-01T00:09:03;16.92;;;8.55;;
54909;SDS011;63189;51.240;9.964;2023-03-01T00:11:30;10.10;;;6.40;;
54909;SDS011;63189;51.240;9.964;2023-03-01T00:13:57;9.73;;;6.18;;
54909;SDS011;63189;51.240;9.964;2023-03-01T00:16:25;10.52;;;7.13;;
54909;SDS011;63189;51.240;9.964;2023-03-01T00:18:51;11.60;;;6.95;;
54909;SDS011;63189;51.240;9.964;2023-03-01T00:21:17;11.55;;;7.45;;
54909;SDS011;63189;51.240;9.964;2023-03-01T00:23:44;10.45;;;7.00;;
54909;SDS011;63189;51.240;9.964;2023-03-01T00:26:10;14.07;;;7.97;;
54909;SDS011;63189;51.240;9.964;2023-03-01T00:28:37;11.35;;;7.57;;
54909;SDS011;63189;51.240;9.964;2023-03-01T00:31:06;10.55;;;6.85;;
54909;SDS011;63189;51.240;9.964;2023-03-01T00:33:37;12.07;;;6.75;;
54909;SDS011;63189;51.240;9.964;2023-03-01T00:36:03;12.75;;;6.82;;
54909;SDS011;63189;51.240;9.964;2023-03-01T00:38:29;11.48;;;6.80;;
54909;SDS011;63189;51.240;9.964;2023-03-01T00:40:54;10.95;;;7.72;;
54909;SDS011;63189;51.240;9.964;2023-03-01T00:43:20;12.80;;;7.07;;
54909;SDS011;63189;51.240;9.964;2023-03-01T00:45:46;12.15;;;7.68;;
54909;SDS011;63189;51.240;9.964;2023-03-01T00:48:13;11.15;;;6.20;;
54909;SDS011;63189;51.240;9.964;2023-03-01T00:50:38;11.70;;;7.53;;
54909;SDS011;63189;51.240;9.964;2023-03-01T00:53:04;10.88;;;6.68;;
54909;SDS011;63189;51.240;9.964;2023-03-01T00:55:30;11.52;;;7.65;;
54909;SDS011;63189;51.240;9.964;2023-03-01T00:57:55;10.45;;;7.05;;
54909;SDS011;63189;51.240;9.964;2023-03-01T01:00:21;12.35;;;7.72;;
54909;SDS011;63189;51.240;9.964;2023-03-01T01:02:46;14.75;;;8.07;;
54909;SDS011;63189;51.240;9.964;2023-03-01T01:05:12;15.57;;;7.72;;
54909;SDS011;63189;51.240;9.964;2023-03-01T01:07:38;12.63;;;7.40;;
54909;SDS011;63189;51.240;9.964;2023-03-01T01:10:03;12.48;;;7.97;;
54909;SDS011;63189;51.240;9.964;2023-03-01T01:12:29;13.05;;;6.93;;
54909;SDS011;63189;51.240;9.964;2023-03-01T01:14:54;13.15;;;7.72;;
54909;SDS011;63189;51.240;9.964;2023-03-01T01:17:19;13.02;;;7.68;;
54909;SDS011;63189;51.240;9.964;2023-03-01T01:19:45;12.90;;;7.57;;
54909;SDS011;63189;51.240;9.964;2023-03-01T01:22:10;12.13;;;8.07;;
54909;SDS011;63189;51.240;9.964;2023-03-01T01:24:36;12.38;;;7.57;;
54909;SDS011;63189;51.240;9.964;2023-03-01T01:27:01;11.68;;;7.50;;
54909;SDS011;63189;51.240;9.964;2023-03-01T01:29:26;14.13;;;8.52;;
54909;SDS011;63189;51.240;9.964;2023-03-01T01:31:52;14.52;;;8.00;;
54909;SDS011;63189;51.240;9.964;2023-03-01T01:34:18;13.85;;;8.10;;
54909;SDS011;63189;51.240;9.964;2023-03-01T01:36:49;16.48;;;8.90;;
54909;SDS011;63189;51.240;9.964;2023-03-01T01:39:16;14.40;;;8.45;;
54909;SDS011;63189;51.240;9.964;2023-03-01T01:41:41;15.25;;;7.60;;
54909;SDS011;63189;51.240;9.964;2023-03-01T01:46:36;16.42;;;8.63;;
54909;SDS011;63189;51.240;9.964;2023-03-01T01:49:05;12.73;;;8.30;;
54909;SDS011;63189;51.240;9.964;2023-03-01T01:51:39;12.90;;;7.82;;
54909;SDS011;63189;51.240;9.964;2023-03-01T01:54:08;13.48;;;9.07;;
54909;SDS011;63189;51.240;9.964;2023-03-01T01:56:42;14.05;;;8.55;;
54909;SDS011;63189;51.240;9.964;2023-03-01T01:59:12;15.10;;;8.85;;
54909;SDS011;63189;51.240;9.964;2023-03-01T02:01:39;11.20;;;6.90;;
54909;SDS011;63189;51.240;9.964;2023-03-01T02:04:04;13.25;;;8.35;;
54909;SDS011;63189;51.240;9.964;2023-03-01T02:06:36;16.38;;;8.68;;
54909;SDS011;63189;51.240;9.964;2023-03-01T02:09:06;13.43;;;8.23;;
54909;SDS011;63189;51.240;9.964;2023-03-01T02:11:36;13.93;;;9.00;;
54909;SDS011;63189;51.240;9.964;2023-03-01T02:14:02;13.13;;;8.45;;
54909;SDS011;63189;51.240;9.964;2023-03-01T02:16:28;13.20;;;8.77;;
54909;SDS011;63189;51.240;9.964;2023-03-01T02:18:57;13.82;;;8.57;;
54909;SDS011;63189;51.240;9.964;2023-03-01T02:21:28;12.35;;;8.27;;
54909;SDS011;63189;51.240;9.964;2023-03-01T02:26:51;14.23;;;9.10;;
54909;SDS011;63189;51.240;9.964;2023-03-01T02:29:20;13.38;;;8.00;;
54909;SDS011;63189;51.240;9.964;2023-03-01T02:31:46;11.55;;;7.70;;
54909;SDS011;63189;51.240;9.964;2023-03-01T02:34:16;15.50;;;10.25;;
54909;SDS011;63189;51.240;9.964;2023-03-01T02:36:45;12.73;;;8.75;;
54909;SDS011;63189;51.240;9.964;2023-03-01T02:39:19;17.00;;;8.40;;
54909;SDS011;63189;51.240;9.964;2023-03-01T02:41:52;11.55;;;8.18;;
54909;SDS011;63189;51.240;9.964;2023-03-01T02:44:20;15.55;;;8.80;;
54909;SDS011;63189;51.240;9.964;2023-03-01T02:46:50;10.93;;;6.88;;
54909;SDS011;63189;51.240;9.964;2023-03-01T02:49:27;13.73;;;8.23;;
54909;SDS011;63189;51.240;9.964;2023-03-01T02:57:12;14.77;;;8.75;;
54909;SDS011;63189;51.240;9.964;2023-03-01T02:59:38;12.35;;;7.68;;
54909;SDS011;63189;51.240;9.964;2023-03-01T03:02:18;14.07;;;8.13;;
54909;SDS011;63189;51.240;9.964;2023-03-01T03:05:05;15.05;;;8.73;;
54909;SDS011;63189;51.240;9.964;2023-03-01T03:07:36;11.82;;;7.53;;
54909;SDS011;63189;51.240;9.964;2023-03-01T03:10:04;14.30;;;8.30;;
54909;SDS011;63189;51.240;9.964;2023-03-01T03:12:32;11.85;;;7.55;;
54909;SDS011;63189;51.240;9.964;2023-03-01T03:14:57;12.30;;;7.80;;
54909;SDS011;63189;51.240;9.964;2023-03-01T03:17:23;13.43;;;8.00;;
54909;SDS011;63189;51.240;9.964;2023-03-01T03:19:48;14.27;;;8.55;;
54909;SDS011;63189;51.240;9.964;2023-03-01T03:22:14;13.70;;;8.15;;
54909;SDS011;63189;51.240;9.964;2023-03-01T03:24:39;12.57;;;7.57;;
54909;SDS011;63189;51.240;9.964;2023-03-01T03:27:05;16.23;;;8.18;;
54909;SDS011;63189;51.240;9.964;2023-03-01T03:29:30;15.02;;;8.40;;
54909;SDS011;63189;51.240;9.964;2023-03-01T03:31:56;13.95;;;8.30;;
54909;SDS011;63189;51.240;9.964;2023-03-01T03:34:22;15.13;;;8.15;;
54909;SDS011;63189;51.240;9.964;2023-03-01T03:36:48;14.60;;;8.85;;
54909;SDS011;63189;51.240;9.964;2023-03-01T03:39:21;14.32;;;7.97;;
54909;SDS011;63189;51.240;9.964;2023-03-01T03:41:48;13.02;;;7.78;;
54909;SDS011;63189;51.240;9.964;2023-03-01T03:44:13;14.70;;;8.48;;
54909;SDS011;63189;51.240;9.964;2023-03-01T03:46:38;14.75;;;8.13;;
54909;SDS011;63189;51.240;9.964;2023-03-01T03:49:04;13.05;;;8.05;;
54909;SDS011;63189;51.240;9.964;2023-03-01T03:51:30;13.30;;;7.50;;
54909;SDS011;63189;51.240;9.964;2023-03-01T03:53:55;12.68;;;8.20;;
54909;SDS011;63189;51.240;9.964;2023-03-01T03:56:20;12.15;;;7.18;;
54909;SDS011;63189;51.240;9.964;2023-03-01T03:58:51;11.13;;;7.15;;
54909;SDS011;63189;51.240;9.964;2023-03-01T04:01:17;15.27;;;8.43;;
54909;SDS011;63189;51.240;9.964;2023-03-01T04:03:42;14.75;;;7.93;;
54909;SDS011;63189;51.240;9.964;2023-03-01T04:06:11;12.68;;;7.70;;
54909;SDS011;63189;51.240;9.964;2023-03-01T04:08:40;14.23;;;8.40;;
54909;SDS011;63189;51.240;9.964;2023-03-01T04:11:05;12.07;;;7.70;;
54909;SDS011;63189;51.240;9.964;2023-03-01T04:13:50;11.73;;;6.97;;
54909;SDS011;63189;51.240;9.964;2023-03-01T04:16:17;14.23;;;7.75;;
54909;SDS011;63189;51.240;9.964;2023-03-01T04:18:42;13.07;;;8.00;;
54909;SDS011;63189;51.240;9.964;2023-03-01T04:21:08;12.43;;;8.25;;
54909;SDS011;63189;51.240;9.964;2023-03-01T04:23:33;14.02;;;7.68;;
54909;SDS011;63189;51.240;9.964;2023-03-01T04:25:59;13.60;;;8.10;;
54909;SDS011;63189;51.240;9.964;2023-03-01T04:28:29;16.23;;;8.55;;
54909;SDS011;63189;51.240;9.964;2023-03-01T04:31:04;11.23;;;6.93;;
54909;SDS011;63189;51.240;9.964;2023-03-01T04:33:46;10.77;;;6.78;;
54909;SDS011;63189;51.240;9.964;2023-03-01T04:36:16;13.10;;;8.02;;
54909;SDS011;63189;51.240;9.964;2023-03-01T04:38:42;12.55;;;7.10;;
54909;SDS011;63189;51.240;9.964;2023-03-01T04:41:12;10.95;;;7.07;;
54909;SDS011;63189;51.240;9.964;2023-03-01T04:43:38;13.85;;;8.30;;
54909;SDS011;63189;51.240;9.964;2023-03-01T04:46:08;12.40;;;7.07;;
54909;SDS011;63189;51.240;9.964;2023-03-01T04:48:37;11.50;;;6.88;;
54909;SDS011;63189;51.240;9.964;2023-03-01T04:51:05;10.93;;;6.95;;
54909;SDS011;63189;51.240;9.964;2023-03-01T04:53:32;10.95;;;7.10;;
54909;SDS011;63189;51.240;9.964;2023-03-01T04:55:58;13.43;;;8.23;;
54909;SDS011;63189;51.240;9.964;2023-03-01T04:58:27;12.23;;;7.82;;
54909;SDS011;63189;51.240;9.964;2023-03-01T05:00:53;13.57;;;8.27;;
54909;SDS011;63189;51.240;9.964;2023-03-01T05:03:20;11.70;;;7.95;;
54909;SDS011;63189;51.240;9.964;2023-03-01T05:05:46;15.10;;;9.07;;
54909;SDS011;63189;51.240;9.964;2023-03-01T05:08:14;13.82;;;8.38;;
54909;SDS011;63189;51.240;9.964;2023-03-01T05:10:43;14.75;;;9.68;;
54909;SDS011;63189;51.240;9.964;2023-03-01T05:13:11;14.82;;;9.43;;
54909;SDS011;63189;51.240;9.964;2023-03-01T05:15:46;14.60;;;8.80;;
54909;SDS011;63189;51.240;9.964;2023-03-01T05:18:23;14.55;;;9.18;;
54909;SDS011;63189;51.240;9.964;2023-03-01T05:21:00;17.23;;;9.50;;
54909;SDS011;63189;51.240;9.964;2023-03-01T05:23:31;19.95;;;10.20;;
54909;SDS011;63189;51.240;9.964;2023-03-01T05:26:01;18.48;;;10.20;;
54909;SDS011;63189;51.240;9.964;2023-03-01T05:28:29;16.67;;;10.25;;
54909;SDS011;63189;51.240;9.964;2023-03-01T05:30:55;16.98;;;10.00;;
54909;SDS011;63189;51.240;9.964;2023-03-01T05:33:20;18.63;;;11.27;;
54909;SDS011;63189;51.240;9.964;2023-03-01T05:35:47;20.15;;;10.65;;
54909;SDS011;63189;51.240;9.964;2023-03-01T05:38:13;21.63;;;13.05;;
54909;SDS011;63189;51.240;9.964;2023-03-01T05:40:44;22.15;;;12.13;;
54909;SDS011;63189;51.240;9.964;2023-03-01T05:43:11;19.63;;;11.48;;
54909;SDS011;63189;51.240;9.964;2023-03-01T05:45:39;19.52;;;11.00;;
54909;SDS011;63189;51.240;9.964;2023-03-01T05:48:05;18.50;;;11.10;;
54909;SDS011;63189;51.240;9.964;2023-03-01T05:50:33;19.08;;;11.32;;
54909;SDS011;63189;51.240;9.964;2023-03-01T05:53:01;17.95;;;10.50;;
54909;SDS011;63189;51.240;9.964;2023-03-01T05:55:38;17.20;;;10.10;;
54909;SDS011;63189;51.240;9.964;2023-03-01T05:58:05;20.20;;;11.38;;
54909;SDS011;63189;51.240;9.964;2023-03-01T06:00:33;17.38;;;9.65;;
54909;SDS011;63189;51.240;9.964;2023-03-01T06:02:59;17.20;;;9.30;;
54909;SDS011;63189;51.240;9.964;2023-03-01T06:05:25;13.43;;;9.30;;
54909;SDS011;63189;51.240;9.964;2023-03-01T06:07:51;15.18;;;8.90;;
54909;SDS011;63189;51.240;9.964;2023-03-01T06:10:18;18.92;;;10.65;;
54909;SDS011;63189;51.240;9.964;2023-03-01T06:12:44;18.73;;;11.20;;
54909;SDS011;63189;51.240;9.964;2023-03-01T06:15:11;18.83;;;10.57;;
54909;SDS011;63189;51.240;9.964;2023-03-01T06:17:38;21.63;;;11.95;;
54909;SDS011;63189;51.240;9.964;2023-03-01T06:20:06;18.30;;;10.57;;
54909;SDS011;63189;51.240;9.964;2023-03-01T06:22:33;21.52;;;11.68;;
54909;SDS011;63189;51.240;9.964;2023-03-01T06:24:59;20.40;;;11.52;;
54909;SDS011;63189;51.240;9.964;2023-03-01T06:27:24;18.02;;;11.02;;
54909;SDS011;63189;51.240;9.964;2023-03-01T06:29:50;14.65;;;8.90;;
54909;SDS011;63189;51.240;9.964;2023-03-01T06:32:15;20.60;;;11.88;;
54909;SDS011;63189;51.240;9.964;2023-03-01T06:34:41;19.08;;;10.90;;
54909;SDS011;63189;51.240;9.964;2023-03-01T06:37:06;19.45;;;10.82;;
54909;SDS011;63189;51.240;9.964;2023-03-01T06:39:32;17.95;;;9.65;;
54909;SDS011;63189;51.240;9.964;2023-03-01T06:41:58;18.05;;;10.30;;
54909;SDS011;63189;51.240;9.964;2023-03-01T06:44:24;16.70;;;11.07;;
54909;SDS011;63189;51.240;9.964;2023-03-01T06:46:49;17.92;;;9.60;;
54909;SDS011;63189;51.240;9.964;2023-03-01T06:49:15;22.02;;;11.52;;
54909;SDS011;63189;51.240;9.964;2023-03-01T06:51:41;16.30;;;9.20;;
54909;SDS011;63189;51.240;9.964;2023-03-01T06:54:06;21.48;;;11.73;;
54909;SDS011;63189;51.240;9.964;2023-03-01T06:56:32;17.00;;;9.43;;
54909;SDS011;63189;51.240;9.964;2023-03-01T06:58:57;18.30;;;10.10;;
54909;SDS011;63189;51.240;9.964;2023-03-01T07:01:23;17.90;;;10.02;;
54909;SDS011;63189;51.240;9.964;2023-03-01T07:03:48;15.60;;;9.13;;
54909;SDS011;63189;51.240;9.964;2023-03-01T07:06:14;17.70;;;10.45;;
54909;SDS011;63189;51.240;9.964;2023-03-01T07:08:39;15.70;;;9.45;;
54909;SDS011;63189;51.240;9.964;2023-03-01T07:11:04;16.77;;;10.07;;
54909;SDS011;63189;51.240;9.964;2023-03-01T07:13:30;13.50;;;8.55;;
54909;SDS011;63189;51.240;9.964;2023-03-01T07:15:56;20.27;;;10.57;;
54909;SDS011;63189;51.240;9.964;2023-03-01T07:18:21;17.00;;;10.07;;
54909;SDS011;63189;51.240;9.964;2023-03-01T07:20:47;14.43;;;9.57;;
54909;SDS011;63189;51.240;9.964;2023-03-01T07:23:12;12.23;;;7.43;;
54909;SDS011;63189;51.240;9.964;2023-03-01T07:25:37;13.63;;;8.07;;
54909;SDS011;63189;51.240;9.964;2023-03-01T07:28:03;16.17;;;8.82;;
54909;SDS011;63189;51.240;9.964;2023-03-01T07:30:28;14.88;;;9.35;;
54909;SDS011;63189;51.240;9.964;2023-03-01T07:32:54;16.13;;;8.73;;
54909;SDS011;63189;51.240;9.964;2023-03-01T07:35:21;14.60;;;8.50;;
54909;SDS011;63189;51.240;9.964;2023-03-01T07:37:47;15.82;;;8.98;;
54909;SDS011;63189;51.240;9.964;2023-03-01T07:40:12;16.08;;;9.63;;
54909;SDS011;63189;51.240;9.964;2023-03-01T07:42:38;15.20;;;8.85;;
54909;SDS011;63189;51.240;9.964;2023-03-01T07:45:04;18.15;;;9.32;;
54909;SDS011;63189;51.240;9.964;2023-03-01T07:47:30;14.65;;;8.23;;
54909;SDS011;63189;51.240;9.964;2023-03-01T07:49:56;15.50;;;9.05;;
54909;SDS011;63189;51.240;9.964;2023-03-01T07:52:21;13.70;;;8.32;;
54909;SDS011;63189;51.240;9.964;2023-03-01T07:54:47;15.10;;;8.65;;
54909;SDS011;63189;51.240;9.964;2023-03-01T07:57:12;11.60;;;7.53;;
54909;SDS011;63189;51.240;9.964;2023-03-01T07:59:37;14.25;;;7.65;;
54909;SDS011;63189;51.240;9.964;2023-03-01T08:02:03;14.07;;;8.80;;
54909;SDS011;63189;51.240;9.964;2023-03-01T08:04:28;12.82;;;8.02;;
54909;SDS011;63189;51.240;9.964;2023-03-01T08:06:54;13.10;;;7.85;;
54909;SDS011;63189;51.240;9.964;2023-03-01T08:09:19;13.02;;;8.07;;
54909;SDS011;63189;51.240;9.964;2023-03-01T08:11:45;11.30;;;7.22;;
54909;SDS011;63189;51.240;9.964;2023-03-01T08:14:11;10.90;;;7.43;;
54909;SDS011;63189;51.240;9.964;2023-03-01T08:16:36;10.57;;;6.95;;
54909;SDS011;63189;51.240;9.964;2023-03-01T08:19:05;11.45;;;7.40;;
54909;SDS011;63189;51.240;9.964;2023-03-01T08:21:32;12.15;;;7.43;;
54909;SDS011;63189;51.240;9.964;2023-03-01T08:23:59;14.73;;;7.50;;
54909;SDS011;63189;51.240;9.964;2023-03-01T08:26:25;12.65;;;7.68;;
54909;SDS011;63189;51.240;9.964;2023-03-01T08:28:50;13.48;;;7.90;;
54909;SDS011;63189;51.240;9.964;2023-03-01T08:33:43;12.80;;;6.65;;
54909;SDS011;63189;51.240;9.964;2023-03-01T08:36:09;11.38;;;6.55;;
54909;SDS011;63189;51.240;9.964;2023-03-01T08:38:34;9.82;;;5.97;;
54909;SDS011;63189;51.240;9.964;2023-03-01T08:41:00;9.80;;;5.50;;
54909;SDS011;63189;51.240;9.964;2023-03-01T08:43:27;11.68;;;5.20;;
54909;SDS011;63189;51.240;9.964;2023-03-01T08:45:52;13.95;;;6.35;;
54909;SDS011;63189;51.240;9.964;2023-03-01T08:48:18;10.80;;;6.72;;
54909;SDS011;63189;51.240;9.964;2023-03-01T08:50:43;15.55;;;7.13;;
54909;SDS011;63189;51.240;9.964;2023-03-01T08:53:09;8.20;;;5.30;;
54909;SDS011;63189;51.240;9.964;2023-03-01T08:55:34;11.65;;;6.75;;
54909;SDS011;63189;51.240;9.964;2023-03-01T08:57:59;10.77;;;6.68;;
54909;SDS011;63189;51.240;9.964;2023-03-01T09:00:25;12.35;;;6.13;;
54909;SDS011;63189;51.240;9.964;2023-03-01T09:02:50;11.93;;;6.68;;
54909;SDS011;63189;51.240;9.964;2023-03-01T09:05:15;10.13;;;6.45;;
54909;SDS011;63189;51.240;9.964;2023-03-01T09:07:41;11.07;;;6.05;;
54909;SDS011;63189;51.240;9.964;2023-03-01T09:10:06;11.35;;;5.88;;
54909;SDS011;63189;51.240;9.964;2023-03-01T09:12:32;10.93;;;6.15;;
54909;SDS011;63189;51.240;9.964;2023-03-01T09:14:57;11.18;;;5.68;;
54909;SDS011;63189;51.240;9.964;2023-03-01T09:17:22;10.65;;;5.65;;
54909;SDS011;63189;51.240;9.964;2023-03-01T09:19:48;12.27;;;6.00;;
54909;SDS011;63189;51.240;9.964;2023-03-01T09:22:14;10.95;;;6.72;;
54909;SDS011;63189;51.240;9.964;2023-03-01T09:24:39;11.48;;;7.20;;
54909;SDS011;63189;51.240;9.964;2023-03-01T09:27:05;10.15;;;5.60;;
54909;SDS011;63189;51.240;9.964;2023-03-01T09:29:33;11.00;;;6.32;;
54909;SDS011;63189;51.240;9.964;2023-03-01T09:32:00;9.32;;;6.35;;
54909;SDS011;63189;51.240;9.964;2023-03-01T09:34:25;10.63;;;6.32;;
54909;SDS011;63189;51.240;9.964;2023-03-01T09:36:51;13.02;;;6.85;;
54909;SDS011;63189;51.240;9.964;2023-03-01T09:39:16;11.75;;;6.22;;
54909;SDS011;63189;51.240;9.964;2023-03-01T09:47:01;12.98;;;6.57;;
54909;SDS011;63189;51.240;9.964;2023-03-01T09:49:29;11.38;;;6.60;;
54909;SDS011;63189;51.240;9.964;2023-03-01T09:51:58;11.55;;;6.72;;
54909;SDS011;63189;51.240;9.964;2023-03-01T09:54:28;15.57;;;8.07;;
54909;SDS011;63189;51.240;9.964;2023-03-01T09:56:57;12.85;;;7.13;;
54909;SDS011;63189;51.240;9.964;2023-03-01T10:02:38;14.13;;;7.30;;
54909;SDS011;63189;51.240;9.964;2023-03-01T10:08:24;10.05;;;6.35;;
54909;SDS011;63189;51.240;9.964;2023-03-01T10:10:56;12.18;;;7.25;;
54909;SDS011;63189;51.240;9.964;2023-03-01T10:13:46;13.05;;;7.45;;
54909;SDS011;63189;51.240;9.964;2023-03-01T10:21:56;10.43;;;6.85;;
54909;SDS011;63189;51.240;9.964;2023-03-01T10:24:27;10.38;;;6.93;;
54909;SDS011;63189;51.240;9.964;2023-03-01T10:26:57;13.05;;;7.13;;
54909;SDS011;63189;51.240;9.964;2023-03-01T10:29:30;13.18;;;6.63;;
54909;SDS011;63189;51.240;9.964;2023-03-01T10:32:11;13.48;;;7.30;;
54909;SDS011;63189;51.240;9.964;2023-03-01T10:34:36;15.10;;;6.95;;
54909;SDS011;63189;51.240;9.964;2023-03-01T10:37:09;11.50;;;6.78;;
54909;SDS011;63189;51.240;9.964;2023-03-01T10:39:34;8.25;;;4.97;;
54909;SDS011;63189;51.240;9.964;2023-03-01T10:42:01;10.50;;;5.60;;
54909;SDS011;63189;51.240;9.964;2023-03-01T10:44:45;12.02;;;7.32;;
54909;SDS011;63189;51.240;9.964;2023-03-01T10:47:33;10.82;;;6.22;;
54909;SDS011;63189;51.240;9.964;2023-03-01T10:50:04;9.05;;;4.88;;
54909;SDS011;63189;51.240;9.964;2023-03-01T10:52:47;8.73;;;4.53;;
54909;SDS011;63189;51.240;9.964;2023-03-01T11:00:45;11.25;;;5.70;;
54909;SDS011;63189;51.240;9.964;2023-03-01T11:03:23;10.00;;;6.03;;
54909;SDS011;63189;51.240;9.964;2023-03-01T11:05:58;7.47;;;5.40;;
54909;SDS011;63189;51.240;9.964;2023-03-01T11:08:43;10.27;;;5.35;;
54909;SDS011;63189;51.240;9.964;2023-03-01T11:19:06;9.18;;;5.88;;
54909;SDS011;63189;51.240;9.964;2023-03-01T11:24:21;11.05;;;6.28;;
54909;SDS011;63189;51.240;9.964;2023-03-01T11:26:53;14.25;;;7.80;;
54909;SDS011;63189;51.240;9.964;2023-03-01T11:29:37;13.38;;;8.75;;
54909;SDS011;63189;51.240;9.964;2023-03-01T11:32:08;11.43;;;6.93;;
54909;SDS011;63189;51.240;9.964;2023-03-01T11:34:39;10.70;;;6.90;;
54909;SDS011;63189;51.240;9.964;2023-03-01T11:37:20;12.63;;;7.10;;
54909;SDS011;63189;51.240;9.964;2023-03-01T11:39:59;13.38;;;7.32;;
54909;SDS011;63189;51.240;9.964;2023-03-01T11:42:36;10.80;;;6.50;;
54909;SDS011;63189;51.240;9.964;2023-03-01T11:45:11;11.90;;;7.32;;
54909;SDS011;63189;51.240;9.964;2023-03-01T11:47:51;12.98;;;7.57;;
54909;SDS011;63189;51.240;9.964;2023-03-01T11:50:35;11.60;;;6.20;;
54909;SDS011;63189;51.240;9.964;2023-03-01T11:56:16;12.98;;;7.20;;
54909;SDS011;63189;51.240;9.964;2023-03-01T12:10:18;10.50;;;6.45;;
54909;SDS011;63189;51.240;9.964;2023-03-01T12:12:48;9.70;;;6.28;;
54909;SDS011;63189;51.240;9.964;2023-03-01T12:15:39;11.40;;;7.13;;
54909;SDS011;63189;51.240;9.964;2023-03-01T12:21:11;9.00;;;5.70;;
54909;SDS011;63189;51.240;9.964;2023-03-01T12:29:42;11.15;;;5.90;;
54909;SDS011;63189;51.240;9.964;2023-03-01T12:43:38;11.50;;;6.00;;
54909;SDS011;63189;51.240;9.964;2023-03-01T12:49:16;10.63;;;6.22;;
54909;SDS011;63189;51.240;9.964;2023-03-01T12:52:07;12.25;;;6.03;;
54909;SDS011;63189;51.240;9.964;2023-03-01T12:54:39;8.98;;;5.63;;
54909;SDS011;63189;51.240;9.964;2023-03-01T12:57:09;9.35;;;5.63;;
54909;SDS011;63189;51.240;9.964;2023-03-01T13:00:00;11.98;;;6.93;;
54909;SDS011;63189;51.240;9.964;2023-03-01T13:03:00;10.50;;;6.40;;
54909;SDS011;63189;51.240;9.964;2023-03-01T13:11:22;12.18;;;6.55;;
54909;SDS011;63189;51.240;9.964;2023-03-01T13:13:49;10.23;;;6.18;;
54909;SDS011;63189;51.240;9.964;2023-03-01T13:16:20;12.75;;;6.53;;
54909;SDS011;63189;51.240;9.964;2023-03-01T13:21:44;13.05;;;6.47;;
54909;SDS011;63189;51.240;9.964;2023-03-01T13:29:43;9.60;;;5.90;;
54909;SDS011;63189;51.240;9.964;2023-03-01T13:35:01;10.10;;;5.32;;
54909;SDS011;63189;51.240;9.964;2023-03-01T13:37:34;10.20;;;5.63;;
54909;SDS011;63189;51.240;9.964;2023-03-01T13:40:04;13.63;;;5.60;;
54909;SDS011;63189;51.240;9.964;2023-03-01T13:42:50;9.98;;;6.07;;
54909;SDS011;63189;51.240;9.964;2023-03-01T13:45:20;8.60;;;5.07;;
54909;SDS011;63189;51.240;9.964;2023-03-01T13:47:58;8.20;;;5.00;;
54909;SDS011;63189;51.240;9.964;2023-03-01T13:50:31;10.07;;;5.20;;
54909;SDS011;63189;51.240;9.964;2023-03-01T13:53:04;8.93;;;4.88;;
54909;SDS011;63189;51.240;9.964;2023-03-01T13:55:40;9.15;;;5.45;;
54909;SDS011;63189;51.240;9.964;2023-03-01T14:01:00;7.28;;;4.22;;
54909;SDS011;63189;51.240;9.964;2023-03-01T14:03:30;7.88;;;5.22;;
54909;SDS011;63189;51.240;9.964;2023-03-01T14:08:28;9.38;;;4.80;;
54909;SDS011;63189;51.240;9.964;2023-03-01T14:10:59;7.13;;;4.10;;
54909;SDS011;63189;51.240;9.964;2023-03-01T14:16:20;9.68;;;4.72;;
54909;SDS011;63189;51.240;9.964;2023-03-01T14:19:12;8.73;;;4.35;;
54909;SDS011;63189;51.240;9.964;2023-03-01T14:21:47;5.93;;;3.42;;
54909;SDS011;63189;51.240;9.964;2023-03-01T14:24:20;7.97;;;4.00;;
54909;SDS011;63189;51.240;9.964;2023-03-01T14:26:47;8.75;;;4.68;;
54909;SDS011;63189;51.240;9.964;2023-03-01T14:29:35;9.18;;;4.80;;
54909;SDS011;63189;51.240;9.964;2023-03-01T14:34:46;6.93;;;4.22;;
54909;SDS011;63189;51.240;9.964;2023-03-01T14:37:24;8.63;;;4.28;;
54909;SDS011;63189;51.240;9.964;2023-03-01T14:39:56;7.38;;;4.40;;
54909;SDS011;63189;51.240;9.964;2023-03-01T14:42:23;12.05;;;4.90;;
54909;SDS011;63189;51.240;9.964;2023-03-01T14:44:52;8.85;;;4.00;;
54909;SDS011;63189;51.240;9.964;2023-03-01T14:47:41;7.32;;;4.03;;
54909;SDS011;63189;51.240;9.964;2023-03-01T14:50:09;6.05;;;3.95;;
54909;SDS011;63189;51.240;9.964;2023-03-01T14:52:46;8.05;;;4.53;;
54909;SDS011;63189;51.240;9.964;2023-03-01T14:55:18;8.18;;;4.22;;
54909;SDS011;63189;51.240;9.964;2023-03-01T14:57:50;9.00;;;4.35;;
54909;SDS011;63189;51.240;9.964;2023-03-01T15:02:47;7.75;;;4.07;;
54909;SDS011;63189;51.240;9.964;2023-03-01T15:05:15;4.90;;;3.70;;
54909;SDS011;63189;51.240;9.964;2023-03-01T15:07:43;6.32;;;3.53;;
54909;SDS011;63189;51.240;9.964;2023-03-01T15:10:24;6.10;;;3.47;;
54909;SDS011;63189;51.240;9.964;2023-03-01T15:12:51;5.43;;;3.05;;
54909;SDS011;63189;51.240;9.964;2023-03-01T15:15:31;7.28;;;3.78;;
54909;SDS011;63189;51.240;9.964;2023-03-01T15:17:59;6.30;;;3.53;;
54909;SDS011;63189;51.240;9.964;2023-03-01T15:20:27;6.13;;;3.13;;
54909;SDS011;63189;51.240;9.964;2023-03-01T15:22:55;5.93;;;3.17;;
54909;SDS011;63189;51.240;9.964;2023-03-01T15:25:23;6.85;;;4.00;;
54909;SDS011;63189;51.240;9.964;2023-03-01T15:27:51;8.18;;;4.10;;
54909;SDS011;63189;51.240;9.964;2023-03-01T15:30:20;5.32;;;2.80;;
54909;SDS011;63189;51.240;9.964;2023-03-01T15:32:48;5.82;;;3.40;;
54909;SDS011;63189;51.240;9.964;2023-03-01T15:35:44;7.28;;;3.20;;
54909;SDS011;63189;51.240;9.964;2023-03-01T15:41:23;6.05;;;3.92;;
54909;SDS011;63189;51.240;9.964;2023-03-01T15:43:51;5.90;;;3.03;;
54909;SDS011;63189;51.240;9.964;2023-03-01T15:48:58;5.55;;;3.10;;
54909;SDS011;63189;51.240;9.964;2023-03-01T15:51:43;6.43;;;3.13;;
54909;SDS011;63189;51.240;9.964;2023-03-01T15:54:17;4.97;;;2.97;;
54909;SDS011;63189;51.240;9.964;2023-03-01T15:56:44;4.75;;;3.30;;
54909;SDS011;63189;51.240;9.964;2023-03-01T15:59:10;5.43;;;3.15;;
54909;SDS011;63189;51.240;9.964;2023-03-01T16:01:38;6.82;;;3.65;;
54909;SDS011;63189;51.240;9.964;2023-03-01T16:04:04;5.82;;;2.83;;
54909;SDS011;63189;51.240;9.964;2023-03-01T16:06:31;7.28;;;4.07;;
54909;SDS011;63189;51.240;9.964;2023-03-01T16:08:57;6.20;;;3.78;;
54909;SDS011;63189;51.240;9.964;2023-03-01T16:11:22;5.03;;;2.95;;
54909;SDS011;63189;51.240;9.964;2023-03-01T16:13:48;5.68;;;3.67;;
54909;SDS011;63189;51.240;9.964;2023-03-01T16:16:14;7.90;;;4.38;;
54909;SDS011;63189;51.240;9.964;2023-03-01T16:18:47;6.05;;;3.45;;
54909;SDS011;63189;51.240;9.964;2023-03-01T16:21:13;7.38;;;4.13;;
54909;SDS011;63189;51.240;9.964;2023-03-01T16:23:41;7.80;;;4.85;;
54909;SDS011;63189;51.240;9.964;2023-03-01T16:26:07;8.30;;;4.43;;
54909;SDS011;63189;51.240;9.964;2023-03-01T16:28:32;8.38;;;4.28;;
54909;SDS011;63189;51.240;9.964;2023-03-01T16:30:58;7.13;;;3.80;;
54909;SDS011;63189;51.240;9.964;2023-03-01T16:33:23;6.82;;;3.40;;
54909;SDS011;63189;51.240;9.964;2023-03-01T16:35:49;7.07;;;3.50;;
54909;SDS011;63189;51.240;9.964;2023-03-01T16:38:14;6.78;;;3.60;;
54909;SDS011;63189;51.240;9.964;2023-03-01T16:40:40;5.88;;;3.55;;
54909;SDS011;63189;51.240;9.964;2023-03-01T16:43:12;4.72;;;2.88;;
54909;SDS011;63189;51.240;9.964;2023-03-01T16:45:37;5.30;;;3.00;;
54909;SDS011;63189;51.240;9.964;2023-03-01T16:48:05;5.43;;;3.03;;